Time;durP1;ratioP1;P1;durP2;ratioP2;P2;SDS_P1;SDS_P2;PMS_P1;PMS_P2;Temp;Humidity;BMP_temperature;BMP_pressure;BME280_temperature;BME280_humidity;BME280_pressure;Samples;Min_cycle;Max_cycle;Signal;HPM_P1;HPM_P2
2022/12/04 00:00:52;;;;;;;75.77;31.57;;;;;;;-1.39;100.00;101295.63;4984700;28;20217;-72
2022/12/04 00:03:18;;;;;;;79.47;30.27;;;;;;;-1.40;100.00;101290.44;4983979;28;20314;-74
2022/12/04 00:05:44;;;;;;;78.53;29.13;;;;;;;-1.39;100.00;101287.94;5003117;28;20209;-72
2022/12/04 00:08:11;;;;;;;89.27;32.73;;;;;;;-1.38;100.00;101293.91;4980389;28;20205;-74
2022/12/04 00:10:42;;;;;;;85.93;30.00;;;;;;;-1.40;100.00;101293.00;4985728;28;20202;-72
2022/12/04 00:13:09;;;;;;;82.37;31.63;;;;;;;-1.38;100.00;101299.91;4986416;28;20202;-74
2022/12/04 00:15:41;;;;;;;70.93;29.63;;;;;;;-1.38;100.00;101297.34;4969179;28;20215;-73
2022/12/04 00:18:07;;;;;;;82.00;30.27;;;;;;;-1.39;100.00;101300.72;4983276;28;20220;-73
2022/12/04 00:20:34;;;;;;;82.70;30.33;;;;;;;-1.38;100.00;101304.16;4982802;28;20271;-73
2022/12/04 00:23:00;;;;;;;89.00;32.07;;;;;;;-1.35;100.00;101312.81;4972222;28;20243;-73
2022/12/04 00:25:26;;;;;;;91.50;33.80;;;;;;;-1.35;100.00;101307.69;4986441;28;20219;-73
2022/12/04 00:27:53;;;;;;;79.77;29.83;;;;;;;-1.35;100.00;101301.69;4986316;28;20204;-73
2022/12/04 00:30:20;;;;;;;79.73;32.87;;;;;;;-1.34;100.00;101303.44;4975748;28;20194;-73
2022/12/04 00:32:47;;;;;;;82.17;31.57;;;;;;;-1.35;100.00;101305.13;4994533;28;20229;-73
2022/12/04 00:35:13;;;;;;;81.43;33.60;;;;;;;-1.34;100.00;101303.44;4987350;28;20217;-73
2022/12/04 00:37:40;;;;;;;90.40;33.80;;;;;;;-1.35;100.00;101306.81;4999503;28;20287;-71
2022/12/04 00:40:08;;;;;;;75.20;29.47;;;;;;;-1.34;100.00;101314.56;4983820;28;20221;-74
2022/12/04 00:42:35;;;;;;;81.87;30.47;;;;;;;-1.33;100.00;101311.16;4971289;28;20210;-72
2022/12/04 00:45:01;;;;;;;80.33;31.40;;;;;;;-1.32;100.00;101304.34;4971715;28;20233;-72
2022/12/04 00:47:29;;;;;;;76.17;31.77;;;;;;;-1.29;100.00;101304.44;4973467;28;20232;-73
2022/12/04 00:49:55;;;;;;;82.30;30.70;;;;;;;-1.31;100.00;101303.53;4985825;28;20359;-73
2022/12/04 00:52:22;;;;;;;90.43;34.40;;;;;;;-1.29;100.00;101307.00;4983703;28;20194;-72
2022/12/04 00:54:48;;;;;;;81.83;32.97;;;;;;;-1.31;100.00;101306.09;4971767;28;20300;-73
2022/12/04 00:57:15;;;;;;;86.63;32.13;;;;;;;-1.27;100.00;101307.06;4984358;28;20240;-74
2022/12/04 00:59:41;;;;;;;79.33;32.37;;;;;;;-1.31;100.00;101293.31;4985444;28;20382;-73
2022/12/04 01:02:07;;;;;;;82.07;32.13;;;;;;;-1.29;100.00;101294.22;4981739;28;20213;-74
2022/12/04 01:04:35;;;;;;;77.17;30.37;;;;;;;-1.29;100.00;101294.22;4984763;28;20641;-73
2022/12/04 01:07:02;;;;;;;90.10;33.20;;;;;;;-1.29;100.00;101294.22;4987186;28;20205;-73
2022/12/04 01:09:30;;;;;;;91.53;33.00;;;;;;;-1.28;100.00;101295.09;4990071;28;20215;-72
2022/12/04 01:11:56;;;;;;;79.23;29.67;;;;;;;-1.27;100.00;101292.56;4982744;28;20246;-73
2022/12/04 01:14:22;;;;;;;80.00;31.33;;;;;;;-1.27;100.00;101290.00;4985421;28;20221;-73
2022/12/04 01:16:49;;;;;;;99.73;33.20;;;;;;;-1.26;100.00;101289.22;4980924;28;20216;-72
2022/12/04 01:19:15;;;;;;;84.27;31.13;;;;;;;-1.26;100.00;101296.03;4985711;28;20233;-73
2022/12/04 01:21:43;;;;;;;83.63;30.33;;;;;;;-1.26;100.00;101294.31;4986850;28;20227;-72
2022/12/04 01:24:09;;;;;;;97.10;35.23;;;;;;;-1.25;100.00;101292.63;4987066;28;20316;-74
2022/12/04 01:26:36;;;;;;;93.30;33.07;;;;;;;-1.23;100.00;101296.09;4984381;28;20201;-73
2022/12/04 01:29:02;;;;;;;77.00;30.53;;;;;;;-1.22;100.00;101297.84;4967603;28;20543;-72
2022/12/04 01:31:29;;;;;;;83.70;33.53;;;;;;;-1.22;100.00;101295.28;4985477;28;20228;-73
2022/12/04 01:33:55;;;;;;;92.33;34.10;;;;;;;-1.23;100.00;101290.97;4986237;28;20689;-72
2022/12/04 01:36:24;;;;;;;80.33;31.43;;;;;;;-1.19;100.00;101295.41;4986623;28;20198;-72
2022/12/04 01:38:51;;;;;;;81.10;31.00;;;;;;;-1.20;100.00;101284.28;4972376;28;20377;-73
2022/12/04 01:41:21;;;;;;;83.83;31.37;;;;;;;-1.21;100.00;101286.81;4988018;28;20225;-72
2022/12/04 01:44:06;;;;;;;86.07;30.60;;;;;;;-1.20;100.00;101289.38;4973923;28;20240;-73
2022/12/04 01:46:32;;;;;;;88.30;33.30;;;;;;;-1.19;100.00;101282.59;4982876;28;20206;-74
2022/12/04 01:48:59;;;;;;;82.13;29.60;;;;;;;-1.17;100.00;101286.06;4988678;28;20214;-73
2022/12/04 01:51:29;;;;;;;80.10;32.57;;;;;;;-1.17;100.00;101281.81;4980272;28;20199;-73
2022/12/04 01:54:00;;;;;;;85.43;33.13;;;;;;;-1.15;100.00;101276.75;4982313;28;20277;-73
2022/12/04 01:56:32;;;;;;;84.87;32.90;;;;;;;-1.15;100.00;101279.31;4980260;28;20268;-74
2022/12/04 01:59:01;;;;;;;80.23;31.17;;;;;;;-1.13;100.00;101277.66;4967721;28;20655;-73
2022/12/04 02:01:33;;;;;;;89.67;32.27;;;;;;;-1.15;100.00;101269.06;5001257;28;20232;-73
2022/12/04 02:04:02;;;;;;;85.67;30.50;;;;;;;-1.13;100.00;101272.53;4982796;28;20217;-72
2022/12/04 02:06:29;;;;;;;81.00;32.87;;;;;;;-1.13;100.00;101271.69;4980899;28;20209;-74
2022/12/04 02:08:57;;;;;;;83.00;33.37;;;;;;;-1.14;100.00;101263.16;4982040;28;20206;-74
2022/12/04 02:11:30;;;;;;;83.93;32.10;;;;;;;-1.13;100.00;101252.06;4977077;28;20213;-73
2022/12/04 02:14:05;;;;;;;77.97;30.57;;;;;;;-1.10;100.00;101264.13;4974041;28;20221;-74
2022/12/04 02:16:40;;;;;;;84.60;29.33;;;;;;;-1.12;100.00;101270.88;4985750;28;20211;-74
2022/12/04 02:19:17;;;;;;;86.07;31.67;;;;;;;-1.12;100.00;101260.66;4987593;28;20207;-74
2022/12/04 02:21:48;;;;;;;93.77;32.70;;;;;;;-1.12;100.00;101253.81;4965422;28;20226;-73
2022/12/04 02:24:41;;;;;;;89.63;33.00;;;;;;;-1.10;100.00;101259.84;4985626;28;20227;-74
2022/12/04 02:27:17;;;;;;;82.63;29.27;;;;;;;-1.12;100.00;101253.81;4985096;28;20232;-74
2022/12/04 02:29:52;;;;;;;82.97;32.67;;;;;;;-1.08;100.00;101247.13;4992101;28;21228;-74
2022/12/04 02:32:22;;;;;;;80.33;32.03;;;;;;;-1.09;100.00;101245.34;4988469;28;20509;-74
2022/12/04 02:38:21;;;;;;;91.27;31.93;;;;;;;-1.09;100.00;101237.69;4984674;28;20805;-73
2022/12/04 02:40:53;;;;;;;78.20;30.00;;;;;;;-1.09;100.00;101224.88;4965225;28;20217;-73
2022/12/04 02:43:24;;;;;;;73.80;31.63;;;;;;;-1.08;100.00;101230.06;4984764;28;20548;-74
2022/12/04 02:45:59;;;;;;;81.87;32.43;;;;;;;-1.08;100.00;101226.63;4983948;28;20236;-74
2022/12/04 02:48:31;;;;;;;73.80;29.20;;;;;;;-1.07;100.00;101223.22;4983473;28;20205;-74
2022/12/04 02:51:00;;;;;;;83.40;33.47;;;;;;;-1.06;100.00;101220.72;4982994;28;20629;-73
2022/12/04 02:53:40;;;;;;;88.80;32.97;;;;;;;-1.07;100.00;101213.00;4982792;28;20686;-73
2022/12/04 02:56:11;;;;;;;88.43;31.33;;;;;;;-1.05;100.00;101209.69;4970679;28;20235;-73
2022/12/04 02:58:43;;;;;;;79.27;32.50;;;;;;;-1.04;100.00;101215.66;4979173;28;20218;-74
2022/12/04 03:01:19;;;;;;;83.00;29.83;;;;;;;-1.03;100.00;101210.59;4984488;28;20277;-72
2022/12/04 03:03:53;;;;;;;83.97;32.30;;;;;;;-1.04;100.00;101206.31;4975739;28;20220;-74
2022/12/04 03:06:21;;;;;;;87.93;30.67;;;;;;;-1.03;100.00;101222.53;4983819;28;20280;-74
2022/12/04 03:08:52;;;;;;;75.47;30.20;;;;;;;-1.03;100.00;101215.72;4978554;28;20207;-73
2022/12/04 03:11:19;;;;;;;81.97;30.33;;;;;;;-1.03;100.00;101220.81;4985577;28;20201;-73
2022/12/04 03:13:49;;;;;;;83.67;32.43;;;;;;;-1.03;100.00;101222.53;4991508;28;20320;-74
2022/12/04 03:16:22;;;;;;;87.33;32.97;;;;;;;-1.02;100.00;101212.34;4968214;28;20223;-74
2022/12/04 03:18:54;;;;;;;81.17;32.60;;;;;;;-1.00;100.00;101218.38;4987910;28;20356;-74
2022/12/04 03:21:24;;;;;;;81.83;32.63;;;;;;;-1.02;100.00;101214.91;4987838;28;20751;-74
2022/12/04 03:23:56;;;;;;;88.23;32.37;;;;;;;-1.01;100.00;101224.31;4985333;28;20221;-74
2022/12/04 03:26:27;;;;;;;83.70;32.50;;;;;;;-1.00;100.00;101215.81;4989538;28;20301;-73
2022/12/04 03:28:59;;;;;;;79.77;31.90;;;;;;;-1.00;100.00;101227.75;4987625;28;20207;-74
2022/12/04 03:31:34;;;;;;;86.07;33.13;;;;;;;-0.99;100.00;101207.28;5001729;28;20205;-74
2022/12/04 03:34:04;;;;;;;86.70;31.70;;;;;;;-1.00;100.00;101214.94;4973184;28;20243;-73
2022/12/04 03:36:35;;;;;;;84.90;33.03;;;;;;;-1.00;100.00;101214.94;4971273;28;20198;-73
2022/12/04 03:39:08;;;;;;;84.07;32.67;;;;;;;-1.00;100.00;101204.72;4988629;28;20654;-73
2022/12/04 03:41:46;;;;;;;88.73;30.90;;;;;;;-1.00;100.00;101213.25;4989879;28;20226;-73
2022/12/04 03:44:20;;;;;;;86.63;32.67;;;;;;;-1.01;100.00;101221.75;4995339;28;20260;-74
2022/12/04 03:46:52;;;;;;;88.07;31.63;;;;;;;-1.00;100.00;101214.94;4985400;28;20202;-73
2022/12/04 03:49:25;;;;;;;92.30;32.33;;;;;;;-0.99;100.00;101214.13;5049291;28;20589;-73
2022/12/04 03:51:58;;;;;;;93.10;33.63;;;;;;;-0.98;100.00;101211.59;4987440;28;20201;-74
2022/12/04 03:54:30;;;;;;;85.40;32.40;;;;;;;-0.97;100.00;101221.03;4983493;28;20218;-74
2022/12/04 03:57:02;;;;;;;91.57;33.63;;;;;;;-0.96;100.00;101219.34;4987660;28;20281;-74
2022/12/04 03:59:34;;;;;;;87.27;33.33;;;;;;;-0.94;100.00;101224.50;4970898;28;20206;-74
2022/12/04 04:02:04;;;;;;;89.20;30.83;;;;;;;-0.94;100.00;101217.69;4984630;28;20248;-75
2022/12/04 04:04:34;;;;;;;87.27;32.10;;;;;;;-0.96;100.00;101214.22;4978167;28;20541;-74
2022/12/04 04:07:07;;;;;;;92.60;32.97;;;;;;;-0.93;100.00;101215.97;4984803;28;20209;-74
2022/12/04 04:09:38;;;;;;;81.50;31.00;;;;;;;-0.92;100.00;101220.28;5031947;28;20197;-74
2022/12/04 04:12:09;;;;;;;88.03;31.03;;;;;;;-0.94;100.00;101217.69;4974195;28;20684;-75
2022/12/04 04:26:07;;;;;;;86.13;31.53;;;;;;;-0.90;100.00;101226.31;4976495;28;20237;-74
2022/12/04 04:28:36;;;;;;;88.17;32.23;;;;;;;-0.87;100.00;101221.31;4985884;28;20203;-74
2022/12/04 04:31:10;;;;;;;88.80;31.80;;;;;;;-0.90;100.00;101218.66;4989086;28;20323;-74
2022/12/04 04:33:47;;;;;;;84.50;32.17;;;;;;;-0.87;100.00;101221.31;4987232;28;20229;-74
2022/12/04 04:36:22;;;;;;;73.70;29.77;;;;;;;-0.88;100.00;101237.47;4987416;28;20197;-74
2022/12/04 04:38:58;;;;;;;96.83;31.90;;;;;;;-0.86;100.00;101236.72;4982662;28;20214;-74
2022/12/04 04:41:32;;;;;;;89.43;31.67;;;;;;;-0.86;100.00;101236.72;4994195;28;20580;-74
2022/12/04 04:44:10;;;;;;;85.97;34.07;;;;;;;-0.88;100.00;101227.22;4984116;23;20239;-72
2022/12/04 04:46:40;;;;;;;88.77;33.13;;;;;;;-0.86;100.00;101226.47;4994857;28;20231;-73
2022/12/04 04:49:11;;;;;;;104.43;33.07;;;;;;;-0.87;100.00;101222.16;4990727;28;20206;-73
2022/12/04 04:51:37;;;;;;;100.77;31.80;;;;;;;-0.84;100.00;101224.81;4993710;28;20661;-73
2022/12/04 04:54:07;;;;;;;89.97;33.47;;;;;;;-0.86;100.00;101223.91;4991899;28;20225;-72
2022/12/04 04:56:40;;;;;;;90.87;34.53;;;;;;;-0.84;100.00;101221.41;4989463;28;20212;-72
2022/12/04 04:59:06;;;;;;;93.97;32.43;;;;;;;-0.84;100.00;101226.53;4992612;28;20201;-76
2022/12/04 05:01:33;;;;;;;97.13;32.67;;;;;;;-0.85;100.00;101225.63;4991622;28;20278;-75
2022/12/04 05:03:59;;;;;;;89.23;32.33;;;;;;;-0.83;100.00;101229.09;4977597;28;20711;-75
2022/12/04 05:06:27;;;;;;;89.60;32.77;;;;;;;-0.83;100.00;101226.53;4975886;28;20523;-76
2022/12/04 05:08:53;;;;;;;89.43;32.20;;;;;;;-0.82;100.00;101230.84;4992564;28;20200;-75
2022/12/04 05:11:19;;;;;;;81.10;30.30;;;;;;;-0.81;100.00;101226.59;4986888;28;20216;-74
2022/12/04 05:13:46;;;;;;;88.53;32.07;;;;;;;-0.81;100.00;101227.47;4990180;28;20255;-74
2022/12/04 05:16:14;;;;;;;83.40;32.20;;;;;;;-0.80;100.00;101224.09;4998370;28;20576;-75
2022/12/04 05:19:52;;;;;;;88.90;32.97;;;;;;;-0.81;100.00;101222.38;4997411;28;20209;-75
2022/12/04 05:21:29;;;;;;;93.20;33.27;;;;;;;-0.81;100.00;101216.34;4997777;28;20225;-74
2022/12/04 05:23:55;;;;;;;90.80;32.83;;;;;;;-0.82;100.00;101212.94;4991117;28;20273;-75
2022/12/04 05:26:22;;;;;;;90.57;31.77;;;;;;;-0.82;100.00;101204.38;4994571;28;20201;-75
2022/12/04 05:28:48;;;;;;;87.87;31.73;;;;;;;-0.81;100.00;101213.78;4993251;28;20212;-75
2022/12/04 05:31:14;;;;;;;81.80;31.60;;;;;;;-0.82;100.00;101200.13;4997580;28;20296;-74
2022/12/04 05:33:41;;;;;;;89.97;32.03;;;;;;;-0.83;100.00;101202.63;4996264;28;21012;-73
2022/12/04 05:36:09;;;;;;;99.97;34.20;;;;;;;-0.81;100.00;101208.66;4993635;28;20296;-75
2022/12/04 05:38:37;;;;;;;87.23;30.87;;;;;;;-0.81;100.00;101207.00;4994635;28;20220;-74
2022/12/04 05:41:06;;;;;;;92.97;32.90;;;;;;;-0.79;100.00;101207.91;4995896;28;20487;-74
2022/12/04 05:43:33;;;;;;;83.57;31.27;;;;;;;-0.81;100.00;101203.53;4997087;28;20228;-74
2022/12/04 05:46:01;;;;;;;82.10;30.97;;;;;;;-0.79;100.00;101213.03;4993166;28;20212;-75
2022/12/04 05:48:27;;;;;;;87.07;31.27;;;;;;;-0.79;100.00;101222.41;4992356;28;20196;-74
2022/12/04 05:50:53;;;;;;;82.37;33.17;;;;;;;-0.78;100.00;101216.44;4992293;28;20592;-73
2022/12/04 05:53:20;;;;;;;87.20;31.30;;;;;;;-0.78;100.00;101221.56;4991025;28;20213;-74
2022/12/04 05:55:55;;;;;;;86.37;31.63;;;;;;;-0.75;100.00;101213.13;4990387;28;20309;-74
2022/12/04 05:58:22;;;;;;;82.40;30.03;;;;;;;-0.77;100.00;101208.81;4999683;28;20657;-74
2022/12/04 06:00:48;;;;;;;94.67;32.00;;;;;;;-0.77;100.00;101216.50;4994295;28;20243;-73
2022/12/04 06:03:14;;;;;;;83.80;32.43;;;;;;;-0.76;100.00;101212.22;4988500;28;20227;-75
2022/12/04 06:05:41;;;;;;;78.70;30.93;;;;;;;-0.76;100.00;101207.13;4991172;28;20231;-74
2022/12/04 06:08:07;;;;;;;79.67;30.27;;;;;;;-0.73;100.00;101216.59;4986963;28;20200;-74
2022/12/04 06:10:33;;;;;;;88.47;30.00;;;;;;;-0.75;100.00;101206.31;4993781;28;20197;-75
2022/12/04 06:13:02;;;;;;;80.60;31.10;;;;;;;-0.73;100.00;101214.03;4993648;28;20712;-74
2022/12/04 06:15:28;;;;;;;79.23;29.70;;;;;;;-0.71;100.00;101207.25;4995936;28;20330;-74
2022/12/04 06:17:55;;;;;;;85.53;29.70;;;;;;;-0.72;100.00;101210.63;4989013;28;20269;-74
2022/12/04 06:20:21;;;;;;;74.93;29.63;;;;;;;-0.71;100.00;101214.94;4996060;28;20528;-75
2022/12/04 06:22:48;;;;;;;91.57;32.63;;;;;;;-0.72;100.00;101208.06;4989201;28;20663;-74
2022/12/04 06:25:14;;;;;;;98.83;33.07;;;;;;;-0.72;100.00;101203.84;4995335;28;20224;-74
2022/12/04 06:27:41;;;;;;;89.40;30.40;;;;;;;-0.71;100.00;101192.75;4991755;28;20195;-74
2022/12/04 06:30:10;;;;;;;93.03;33.67;;;;;;;-0.70;100.00;101204.75;4995295;28;20284;-74
2022/12/04 06:32:36;;;;;;;89.77;31.63;;;;;;;-0.68;100.00;101197.13;4994382;28;20229;-75
2022/12/04 06:35:03;;;;;;;96.77;30.27;;;;;;;-0.67;100.00;101201.38;4978096;28;20240;-74
2022/12/04 06:37:30;;;;;;;90.57;32.27;;;;;;;-0.69;100.00;101198.78;4991033;28;20204;-74
2022/12/04 06:39:56;;;;;;;88.20;32.50;;;;;;;-0.69;100.00;101198.78;4998274;28;20685;-74
2022/12/04 06:42:22;;;;;;;90.63;31.47;;;;;;;-0.68;100.00;101195.41;4993163;28;20212;-74
2022/12/04 06:44:49;;;;;;;87.07;33.27;;;;;;;-0.68;100.00;101195.41;4998167;28;20241;-74
2022/12/04 06:47:17;;;;;;;85.40;30.27;;;;;;;-0.70;100.00;101197.06;5000544;28;20281;-74
2022/12/04 06:49:44;;;;;;;89.53;31.77;;;;;;;-0.69;100.00;101188.53;4999295;28;20196;-74
2022/12/04 06:52:11;;;;;;;90.97;32.37;;;;;;;-0.70;100.00;101197.06;4997707;28;20602;-74
2022/12/04 06:54:37;;;;;;;87.97;31.67;;;;;;;-0.70;100.00;101184.25;4995509;28;20227;-74
2022/12/04 06:57:04;;;;;;;87.73;31.47;;;;;;;-0.68;100.00;101184.31;4997548;28;20209;-73
2022/12/04 06:59:31;;;;;;;84.37;31.83;;;;;;;-0.67;100.00;101194.59;4996863;28;20253;-74
2022/12/04 07:01:57;;;;;;;92.03;30.50;;;;;;;-0.67;100.00;101188.59;4991926;28;20212;-74
2022/12/04 07:04:25;;;;;;;93.13;32.83;;;;;;;-0.68;100.00;101182.59;4997621;28;20212;-74
2022/12/04 07:06:51;;;;;;;90.80;31.20;;;;;;;-0.66;100.00;101183.50;4992280;28;20215;-74
2022/12/04 07:09:18;;;;;;;94.20;32.97;;;;;;;-0.65;100.00;101192.06;4997536;28;20214;-74
2022/12/04 07:11:45;;;;;;;89.50;31.93;;;;;;;-0.63;100.00;101193.84;4999027;28;20208;-73
2022/12/04 07:14:12;;;;;;;93.50;33.00;;;;;;;-0.65;100.00;101187.81;4998530;28;20224;-74
2022/12/04 07:16:40;;;;;;;106.40;33.77;;;;;;;-0.62;100.00;101202.41;4996447;28;20297;-74
2022/12/04 07:19:06;;;;;;;95.97;32.10;;;;;;;-0.62;100.00;101203.25;4991932;28;20213;-73
2022/12/04 07:21:34;;;;;;;94.73;31.63;;;;;;;-0.63;100.00;101196.41;4998089;28;20204;-74
2022/12/04 07:24:01;;;;;;;96.47;29.97;;;;;;;-0.61;100.00;101202.44;4996558;28;20229;-73
2022/12/04 07:26:29;;;;;;;82.77;29.97;;;;;;;-0.60;100.00;101204.19;4999080;28;20203;-74
2022/12/04 07:28:56;;;;;;;89.20;31.67;;;;;;;-0.58;100.00;101204.25;4993846;28;20565;-74
2022/12/04 07:31:25;;;;;;;84.27;31.37;;;;;;;-0.57;100.00;101206.81;4994339;28;20195;-73
2022/12/04 07:33:52;;;;;;;87.90;30.03;;;;;;;-0.60;100.00;101205.88;4996005;28;20208;-74
2022/12/04 07:36:20;;;;;;;95.40;32.43;;;;;;;-0.55;100.00;101203.44;4996266;28;20739;-74
2022/12/04 07:38:48;;;;;;;99.83;32.23;;;;;;;-0.54;100.00;101218.00;4998315;28;20207;-74
2022/12/04 07:41:15;;;;;;;94.43;31.77;;;;;;;-0.54;100.00;101218.88;4994721;28;20555;-72
2022/12/04 07:43:42;;;;;;;92.57;32.57;;;;;;;-0.52;100.00;101217.22;4995744;28;20584;-74
2022/12/04 07:46:11;;;;;;;107.30;33.57;;;;;;;-0.50;100.00;101212.13;5004462;28;20273;-74
2022/12/04 07:48:38;;;;;;;92.17;31.97;;;;;;;-0.50;100.00;101214.69;5001394;28;20296;-74
2022/12/04 07:51:06;;;;;;;96.33;31.17;;;;;;;-0.48;100.00;101208.78;5000104;28;22272;-73
2022/12/04 07:53:34;;;;;;;106.43;32.03;;;;;;;-0.47;100.00;101217.34;4999134;28;20280;-74
2022/12/04 07:56:02;;;;;;;101.93;32.03;;;;;;;-0.46;100.00;101219.97;4992740;28;20299;-74
2022/12/04 07:58:28;;;;;;;92.27;31.17;;;;;;;-0.43;100.00;101216.59;4993016;28;20600;-74
2022/12/04 08:00:55;;;;;;;91.07;31.20;;;;;;;-0.44;100.00;101219.97;4996346;28;20196;-74
2022/12/04 08:03:21;;;;;;;88.77;30.23;;;;;;;-0.41;100.00;101227.75;4990141;28;20254;-74
2022/12/04 08:05:47;;;;;;;87.93;31.47;;;;;;;-0.40;100.00;101232.06;4991031;28;20224;-74
2022/12/04 08:08:14;;;;;;;79.73;31.00;;;;;;;-0.38;100.00;101230.41;4994294;28;20204;-75
2022/12/04 08:10:40;;;;;;;88.00;31.47;;;;;;;-0.39;100.00;101227.00;4989433;28;20685;-74
2022/12/04 08:13:08;;;;;;;87.37;31.13;;;;;;;-0.39;100.00;101221.88;4988382;28;20555;-74
2022/12/04 08:15:35;;;;;;;98.10;31.23;;;;;;;-0.38;100.00;101220.16;4988743;28;20217;-73
2022/12/04 08:18:02;;;;;;;95.57;31.90;;;;;;;-0.38;100.00;101223.59;4992434;28;20204;-74
2022/12/04 08:20:28;;;;;;;96.50;30.93;;;;;;;-0.34;100.00;101229.66;4994396;28;20200;-73
2022/12/04 08:22:55;;;;;;;118.33;40.97;;;;;;;-0.34;100.00;101232.22;4990208;28;20696;-73
2022/12/04 08:25:21;;;;;;;103.10;37.63;;;;;;;-0.33;100.00;101226.28;4990869;28;20235;-74
2022/12/04 08:27:48;;;;;;;101.00;33.70;;;;;;;-0.34;100.00;101231.38;4992481;28;20864;-74
2022/12/04 08:30:17;;;;;;;114.90;38.10;;;;;;;-0.30;100.00;101236.63;4992855;28;20209;-74
2022/12/04 08:32:43;;;;;;;107.43;34.70;;;;;;;-0.30;100.00;101231.50;4994737;28;20787;-74
2022/12/04 08:35:09;;;;;;;95.80;35.17;;;;;;;-0.26;100.00;101232.47;4992875;28;20224;-74
2022/12/04 08:37:36;;;;;;;96.67;33.27;;;;;;;-0.26;100.00;101237.59;4996241;28;20206;-72
2022/12/04 08:40:03;;;;;;;89.10;31.77;;;;;;;-0.24;100.00;101241.91;4996117;28;20766;-73
2022/12/04 08:42:29;;;;;;;90.00;31.77;;;;;;;-0.25;100.00;101224.78;4993454;28;20236;-74
2022/12/04 08:44:55;;;;;;;87.43;30.40;;;;;;;-0.23;100.00;101233.41;4994969;28;20239;-73
2022/12/04 08:47:23;;;;;;;97.23;33.20;;;;;;;-0.24;100.00;101233.38;4992382;28;20199;-73
2022/12/04 08:49:49;;;;;;;87.77;30.20;;;;;;;-0.21;100.00;101234.31;4989708;28;20220;-74
2022/12/04 08:52:16;;;;;;;85.77;28.77;;;;;;;-0.19;100.00;101226.69;4990249;28;20211;-73
2022/12/04 08:54:42;;;;;;;86.03;31.30;;;;;;;-0.16;100.00;101229.28;4992478;28;20228;-71
2022/12/04 08:57:09;;;;;;;97.60;32.13;;;;;;;-0.16;100.00;101225.88;4992115;28;20208;-73
2022/12/04 08:59:35;;;;;;;84.87;30.07;;;;;;;-0.15;100.00;101225.94;4992351;28;20201;-73
2022/12/04 09:02:02;;;;;;;95.33;30.67;;;;;;;-0.12;100.00;101228.56;4991965;28;20216;-74
2022/12/04 09:04:30;;;;;;;85.70;31.37;;;;;;;-0.12;100.00;101233.72;4995049;28;20230;-73
2022/12/04 09:06:56;;;;;;;100.37;32.17;;;;;;;-0.09;100.00;101235.47;4989212;28;20523;-74
2022/12/04 09:09:22;;;;;;;101.47;32.03;;;;;;;-0.08;100.00;101232.09;4992632;28;20314;-73
2022/12/04 09:11:49;;;;;;;90.17;31.60;;;;;;;-0.06;100.00;101226.16;4989180;28;20287;-74
2022/12/04 09:14:17;;;;;;;94.97;30.83;;;;;;;-0.06;100.00;101218.47;4993375;28;20221;-74
2022/12/04 09:16:44;;;;;;;91.50;31.73;;;;;;;-0.01;100.00;101224.59;4989942;28;20292;-74
2022/12/04 09:19:10;;;;;;;82.67;30.23;;;;;;;0.03;100.00;101245.19;4993095;28;20480;-74
2022/12/04 09:21:38;;;;;;;91.07;31.20;;;;;;;0.00;100.00;101238.31;4992080;28;20232;-73
2022/12/04 09:24:05;;;;;;;87.07;31.57;;;;;;;0.02;100.00;101234.09;4994222;28;20694;-74
2022/12/04 09:26:33;;;;;;;81.60;29.07;;;;;;;0.05;100.00;101231.56;4997245;28;20205;-74
2022/12/04 09:29:02;;;;;;;93.93;31.23;;;;;;;0.06;100.00;101230.75;4997535;28;20197;-74
2022/12/04 09:31:28;;;;;;;90.27;30.70;;;;;;;0.10;100.00;101226.56;4996608;28;20201;-74
2022/12/04 09:33:57;;;;;;;87.10;30.70;;;;;;;0.10;100.00;101209.50;4994948;28;20298;-74
2022/12/04 09:36:23;;;;;;;103.20;33.03;;;;;;;0.12;100.00;101227.47;4994850;28;20682;-73
2022/12/04 09:38:53;;;;;;;91.13;33.20;;;;;;;0.14;100.00;101224.16;4996336;28;20201;-74
2022/12/04 09:41:32;;;;;;;92.43;31.43;;;;;;;0.16;100.00;101221.63;4994909;28;20211;-74
2022/12/04 09:44:03;;;;;;;94.80;30.43;;;;;;;0.20;100.00;101225.13;4995470;28;20249;-74
2022/12/04 09:46:37;;;;;;;93.97;32.23;;;;;;;0.19;100.00;101226.81;4994529;28;20200;-74
2022/12/04 09:49:11;;;;;;;76.87;28.57;;;;;;;0.17;100.00;101228.47;4994065;28;20264;-73
2022/12/04 09:51:40;;;;;;;97.17;31.57;;;;;;;0.22;100.00;101220.91;4995833;28;20796;-73
2022/12/04 09:54:13;;;;;;;101.20;32.70;;;;;;;0.20;100.00;101217.44;4993776;28;20216;-74
2022/12/04 09:56:42;;;;;;;89.00;30.97;;;;;;;0.21;100.00;101212.31;4994309;28;20673;-74
2022/12/04 09:59:15;;;;;;;92.50;29.10;;;;;;;0.23;100.00;101202.09;4992118;28;20377;-74
2022/12/04 10:01:46;;;;;;;94.33;30.87;;;;;;;0.25;100.00;101197.91;4993734;28;20205;-74
2022/12/04 10:04:13;;;;;;;85.40;29.83;;;;;;;0.28;100.00;101192.84;4988007;28;20657;-74
2022/12/04 10:06:44;;;;;;;86.73;30.87;;;;;;;0.31;100.00;101209.16;4987959;28;20263;-74
2022/12/04 10:09:19;;;;;;;89.90;30.33;;;;;;;0.29;100.00;101202.28;4992176;28;20193;-74
2022/12/04 10:11:52;;;;;;;90.10;29.93;;;;;;;0.36;100.00;101199.03;4997238;28;20300;-74
2022/12/04 10:14:33;;;;;;;86.63;31.87;;;;;;;0.36;100.00;101196.47;4995341;28;20223;-74
2022/12/04 10:17:19;;;;;;;91.80;29.83;;;;;;;0.41;100.00;101197.44;4993871;28;20215;-74
2022/12/04 10:19:53;;;;;;;83.13;29.90;;;;;;;0.43;100.00;101200.91;4991112;28;20677;-74
2022/12/04 10:22:25;;;;;;;84.93;30.70;;;;;;;0.43;100.00;101195.78;4995574;28;20212;-74
2022/12/04 10:24:55;;;;;;;85.53;30.70;;;;;;;0.47;100.00;101192.44;4975171;28;20240;-74
2022/12/04 10:27:27;;;;;;;100.93;30.87;;;;;;;0.47;100.00;101195.03;4990941;28;20193;-74
2022/12/04 10:29:58;;;;;;;89.87;29.50;;;;;;;0.51;100.00;101198.53;4990020;28;20287;-74
2022/12/04 10:32:29;;;;;;;81.47;30.77;;;;;;;0.51;100.00;101201.09;4993138;28;20197;-74
2022/12/04 10:34:59;;;;;;;84.17;30.03;;;;;;;0.49;100.00;101203.66;4975071;28;20773;-74
2022/12/04 10:37:27;;;;;;;83.87;31.37;;;;;;;0.51;100.00;101201.97;4992240;28;20197;-74
2022/12/04 10:40:04;;;;;;;79.90;29.30;;;;;;;0.50;100.00;101205.38;4996266;28;20216;-73
2022/12/04 10:42:36;;;;;;;85.47;30.90;;;;;;;0.51;100.00;101199.41;4988950;28;20742;-73
2022/12/04 10:45:04;;;;;;;84.47;29.57;;;;;;;0.50;100.00;101207.94;5005426;23;20240;-72
2022/12/04 10:47:30;;;;;;;87.67;30.40;;;;;;;0.51;100.00;101198.53;4999395;28;20250;-72
2022/12/04 10:50:00;;;;;;;99.83;32.90;;;;;;;0.55;100.00;101211.47;4999183;28;20232;-72
2022/12/04 10:52:27;;;;;;;98.50;30.70;;;;;;;0.56;100.00;101213.22;5000244;28;20488;-72
2022/12/04 10:54:58;;;;;;;87.83;29.83;;;;;;;0.60;100.00;101206.47;4999592;28;20201;-72
2022/12/04 10:57:35;;;;;;;85.83;29.93;;;;;;;0.62;100.00;101199.66;4992798;28;20201;-72
2022/12/04 11:00:05;;;;;;;76.77;28.97;;;;;;;0.64;100.00;101195.44;5000324;28;20582;-72
2022/12/04 11:02:33;;;;;;;93.40;31.23;;;;;;;0.64;100.00;101192.88;4991762;28;20239;-72
2022/12/04 11:05:01;;;;;;;96.70;31.30;;;;;;;0.67;100.00;101194.63;4993541;28;20649;-72
2022/12/04 11:07:30;;;;;;;84.77;29.73;;;;;;;0.64;100.00;101176.59;4988248;28;20204;-72
2022/12/04 11:10:02;;;;;;;88.80;31.63;;;;;;;0.67;100.00;101172.41;4988775;28;20696;-72
2022/12/04 11:12:30;;;;;;;91.10;31.07;;;;;;;0.69;100.00;101162.19;4994301;28;20221;-72
2022/12/04 11:15:00;;;;;;;88.53;30.67;;;;;;;0.69;100.00;101163.03;4993259;28;20194;-72
2022/12/04 11:17:27;;;;;;;92.20;29.70;;;;;;;0.70;100.00;101163.91;4990933;28;20197;-72
2022/12/04 11:19:59;;;;;;;92.50;31.10;;;;;;;0.71;100.00;101160.50;4989241;28;20201;-72
2022/12/04 11:22:26;;;;;;;87.10;31.00;;;;;;;0.72;100.00;101162.22;4991310;28;20213;-72
2022/12/04 11:24:55;;;;;;;96.00;30.70;;;;;;;0.73;100.00;101156.28;4985925;28;20224;-73